Latest Weather Observations for St Lawrence

IDQ60801

Issued at 10:02 pm EST Tuesday 6 December 2016 (issued every 30 minutes, with the page automatically refreshed every 10 minutes)

About weather observations | Map of weather stations | Latest weather observations for QLD | Other Formats
Station Details ID: 033210 Name: ST LAWRENCE Lat: -22.35 Lon: 149.52 Height: 9.19 m
Data from the previous 72 hours. | See also: Recent months at St Lawrence
Date/Time
EST
Temp
°C
App
Temp
°C
Dew
Point
°C
Rel
Hum
%
Delta-T
°C
Wind Press
QNH
hPa
Press
MSL
hPa
Rain since
9am
mm
Dir  Spd
km/h
Gust
km/h
Spd
kts
Gust
kts
06/10:00pm 25.2 27.3 20.2 74 3.3 NNE 9 13 5 7 1012.9 1012.8 0.0
06/09:30pm 25.4 27.0 20.0 72 3.5 NNE 11 15 6 8 1013.0 1012.9 0.0
06/09:00pm 25.7 26.9 19.8 70 3.8 NNE 13 17 7 9 1013.1 1013.0 0.0
06/08:30pm 26.0 27.4 20.3 71 3.7 NNE 13 22 7 12 1012.9 1012.8 0.0
06/08:00pm 26.2 27.2 20.3 70 3.9 NNE 15 20 8 11 1012.9 1012.8 0.0
06/07:30pm 26.3 26.9 20.2 69 4.0 NNE 17 26 9 14 1012.7 1012.6 0.0
06/07:00pm 26.4 26.5 20.0 68 4.2 NNE 19 28 10 15 1012.7 1012.6 0.0
06/06:30pm 26.7 26.7 19.8 66 4.5 NNE 19 26 10 14 1012.6 1012.5 0.0
06/06:00pm 27.1 26.6 20.0 65 4.6 NNE 22 32 12 17 1012.3 1012.2 0.0
06/05:30pm 27.6 26.6 19.7 62 5.1 NNE 24 30 13 16 1012.3 1012.2 0.0
06/05:00pm 28.4 27.7 19.6 59 5.7 NNE 22 28 12 15 1012.1 1012.0 0.0
06/04:30pm 28.9 28.0 19.8 58 6.0 NNE 24 32 13 17 1012.3 1012.2 0.0
06/04:00pm 29.0 27.8 19.3 55 6.3 NNE 24 32 13 17 1012.3 1012.2 0.0
06/03:30pm 29.2 28.5 19.5 56 6.3 NNE 22 32 12 17 1012.6 1012.5 0.0
06/03:00pm 30.2 29.5 19.6 53 6.9 NNE 22 32 12 17 1012.8 1012.7 0.0
06/02:30pm 30.0 29.1 19.1 52 7.1 NNE 22 32 12 17 1013.1 1013.0 0.0
06/02:00pm 30.3 30.0 19.6 52 7.0 NNE 20 32 11 17 1013.4 1013.3 0.0
06/01:30pm 30.1 29.6 19.2 52 7.1 NNE 20 30 11 16 1013.8 1013.7 0.0
06/01:00pm 30.7 30.3 18.8 49 7.7 NNE 19 30 10 16 1014.1 1014.0 0.0
06/12:30pm 30.1 29.7 18.8 50 7.3 NNE 19 26 10 14 1014.3 1014.2 0.0
06/12:00pm 29.8 29.6 18.6 51 7.2 NE 17 28 9 15 1014.6 1014.5 0.0
06/11:30am 30.2 29.8 18.9 50 7.3 NE 19 24 10 13 1014.9 1014.8 0.0
06/11:00am 29.9 29.6 19.6 54 6.7 NE 20 28 11 15 1015.0 1014.9 0.0
06/10:30am 29.6 29.7 19.9 56 6.4 NE 19 28 10 15 1015.3 1015.2 0.0
06/10:00am 29.4 29.7 19.7 56 6.3 NE 17 26 9 14 1015.6 1015.5 0.0
06/09:30am 28.9 28.8 19.5 57 6.1 NE 19 28 10 15 1015.8 1015.7 0.0
06/09:00am 29.1 29.4 20.3 59 5.8 NE 19 24 10 13 1015.7 1015.6 0.0
06/08:30am 27.8 28.2 19.8 61 5.2 NNE 17 24 9 13 1015.7 1015.6 0.0
06/08:00am 28.5 28.7 20.2 60 5.4 NE 19 26 10 14 1015.5 1015.4 0.0
06/07:30am 27.6 28.0 19.9 63 5.0 NE 17 24 9 13 1015.6 1015.5 0.0
06/07:00am 27.1 27.3 20.2 66 4.5 NE 19 24 10 13 1015.1 1015.0 0.0
06/06:30am 26.4 27.5 20.5 70 3.9 NNE 15 20 8 11 1014.8 1014.7 0.0
06/06:00am 25.8 27.3 20.6 73 3.4 NNE 13 19 7 10 1014.2 1014.1 0.0
06/05:30am 25.2 27.5 20.7 76 2.9 NNE 9 17 5 9 1013.9 1013.8 0.0
06/05:00am 25.3 27.1 20.3 74 3.3 NE 11 17 6 9 1013.6 1013.5 0.0
06/04:30am 25.3 26.8 20.5 75 3.1 NNE 13 20 7 11 1013.4 1013.3 0.0
06/04:00am 25.5 26.6 20.5 74 3.3 NNE 15 20 8 11 1013.1 1013.0 0.0
06/03:30am 25.6 26.9 20.8 75 3.2 NNE 15 20 8 11 1012.9 1012.8 0.0
06/03:00am 25.3 27.2 20.5 75 3.1 NNE 11 17 6 9 1012.8 1012.7 0.0
06/02:30am 25.3 26.7 20.3 74 3.3 NNE 13 19 7 10 1012.8 1012.7 0.0
06/02:00am 25.4 26.5 20.4 74 3.3 NNE 15 19 8 10 1012.8 1012.7 0.0
06/01:30am 25.5 27.1 20.7 75 3.1 NNE 13 17 7 9 1013.0 1012.9 0.0
06/01:00am 25.4 27.6 21.1 77 2.8 NE 11 15 6 8 1013.0 1012.9 0.0
06/12:30am 25.5 27.1 20.7 75 3.1 NNE 13 19 7 10 1013.2 1013.1 0.0
06/12:00am 25.7 27.4 20.9 75 3.2 NNE 13 19 7 10 1013.6 1013.5 0.0
 
Date/Time
EST
Temp
°C
App
Temp
°C
Dew
Point
°C
Rel
Hum
%
Delta-T
°C
Wind Press
QNH
hPa
Press
MSL
hPa
Rain since
9am
mm
Dir  Spd
km/h
Gust
km/h
Spd
kts
Gust
kts
05/11:30pm 25.5 28.1 21.2 77 2.8 NNE 9 17 5 9 1013.8 1013.7 0.0
05/11:00pm 25.5 27.7 21.2 77 2.8 NNE 11 15 6 8 1013.8 1013.7 0.0
05/10:30pm 25.7 27.5 21.1 76 3.0 NNE 13 19 7 10 1014.0 1013.9 0.0
05/10:00pm 25.8 27.6 21.2 76 3.0 NNE 13 20 7 11 1014.1 1014.0 0.0
05/09:30pm 25.8 27.8 21.5 77 2.9 NNE 13 17 7 9 1014.2 1014.1 0.0
05/09:00pm 26.0 27.8 21.2 75 3.2 NNE 13 17 7 9 1014.1 1014.0 0.0
05/08:30pm 26.1 27.9 21.1 74 3.3 NNE 13 17 7 9 1014.0 1013.9 0.0
05/08:00pm 26.3 28.2 21.3 74 3.3 NNE 13 20 7 11 1013.8 1013.7 0.0
05/07:30pm 26.5 28.2 21.0 72 3.6 NNE 13 19 7 10 1013.7 1013.6 0.0
05/07:00pm 26.7 27.6 20.8 70 3.9 NNE 17 20 9 11 1013.3 1013.2 0.0
05/06:30pm 27.0 27.9 20.8 69 4.1 NNE 17 22 9 12 1013.1 1013.0 0.0
05/06:00pm 27.5 28.1 20.3 65 4.7 NNE 17 24 9 13 1012.8 1012.7 0.0
05/05:30pm 28.2 28.5 20.5 63 5.1 NE 19 26 10 14 1012.4 1012.3 0.0
05/05:00pm 28.7 29.1 21.0 63 5.1 NNE 20 28 11 15 1012.3 1012.2 0.0
05/04:30pm 29.0 29.1 20.4 59 5.7 NE 20 30 11 16 1012.3 1012.2 0.0
05/04:00pm 29.2 29.2 20.1 58 6.0 NE 20 26 11 14 1012.3 1012.2 0.0
05/03:30pm 29.3 29.2 19.9 57 6.2 NE 20 30 11 16 1012.3 1012.2 0.0
05/03:00pm 29.4 29.6 20.5 58 5.9 NNE 20 28 11 15 1012.5 1012.4 0.0
05/02:30pm 29.9 29.5 20.2 56 6.4 NNE 22 30 12 16 1012.8 1012.7 0.0
05/02:00pm 30.2 30.2 20.2 55 6.6 NE 20 30 11 16 1013.1 1013.0 0.0
05/01:30pm 30.7 30.4 20.3 53 6.9 NNE 22 32 12 17 1013.4 1013.3 0.0
05/01:00pm 30.7 30.9 20.6 54 6.7 NNE 20 28 11 15 1013.8 1013.7 0.0
05/12:30pm 30.6 30.5 20.8 56 6.5 NE 22 33 12 18 1014.0 1013.9 0.0
05/12:00pm 30.3 30.2 20.0 54 6.8 NNE 20 28 11 15 1014.4 1014.3 0.0
05/11:30am 30.3 30.4 20.0 54 6.8 NE 19 28 10 15 1014.9 1014.8 0.0
05/11:00am 30.1 30.3 20.1 55 6.6 NE 19 28 10 15 1015.3 1015.2 0.0
05/10:30am 30.0 30.3 20.3 56 6.4 NE 19 28 10 15 1015.5 1015.4 0.0
05/10:00am 29.4 29.4 19.7 56 6.3 NE 19 26 10 14 1015.7 1015.6 0.0
05/09:30am 29.0 28.7 19.6 57 6.1 NE 20 30 11 16 1015.8 1015.7 0.0
05/09:00am 28.2 27.6 18.9 57 6.0 NE 20 28 11 15 1015.8 1015.7 0.0
05/08:30am 28.4 28.5 19.9 60 5.6 NNE 19 26 10 14 1015.8 1015.7 0.0
05/08:00am 28.5 29.0 20.8 63 5.1 NNE 19 24 10 13 1016.0 1015.9 0.0
05/07:30am 27.4 28.1 20.5 66 4.5 NNE 17 24 9 13 1015.9 1015.8 0.0
05/07:00am 25.8 29.1 21.5 77 2.9 NNW 6 9 3 5 1015.8 1015.7 0.0
05/06:30am 23.0 27.3 21.1 89 1.2 CALM 0 0 0 0 1015.3 1015.2 0.0
05/06:00am 22.3 26.3 20.6 90 1.1 CALM 0 0 0 0 1015.1 1015.0 0.0
05/05:30am 21.4 24.9 19.5 89 1.2 CALM 0 0 0 0 1014.7 1014.6 0.0
05/05:00am 21.6 25.2 19.7 89 1.2 CALM 0 0 0 0 1014.3 1014.2 0.0
05/04:30am 21.8 25.4 19.7 88 1.3 CALM 0 0 0 0 1013.9 1013.8 0.0
05/04:00am 22.3 26.1 20.2 88 1.4 CALM 0 0 0 0 1013.6 1013.5 0.0
05/03:30am 22.4 26.2 20.1 87 1.5 CALM 0 0 0 0 1013.3 1013.2 0.0
05/03:00am 22.4 26.2 20.1 87 1.5 CALM 0 0 0 0 1013.3 1013.2 0.0
05/02:30am 23.0 27.0 20.5 86 1.6 CALM 0 0 0 0 1013.3 1013.2 0.0
05/02:00am 23.2 27.2 20.5 85 1.8 CALM 0 0 0 0 1013.4 1013.3 0.0
05/01:30am 23.4 27.5 20.7 85 1.8 CALM 0 0 0 0 1013.5 1013.4 0.0
05/01:00am 23.9 28.0 20.8 83 2.0 CALM 0 0 0 0 1013.8 1013.7 0.0
05/12:30am 24.7 27.8 21.0 80 2.4 N 6 9 3 5 1014.0 1013.9 0.0
05/12:00am 25.1 27.9 21.6 81 2.3 NNE 9 11 5 6 1014.2 1014.1 0.0
 
Date/Time
EST
Temp
°C
App
Temp
°C
Dew
Point
°C
Rel
Hum
%
Delta-T
°C
Wind Press
QNH
hPa
Press
MSL
hPa
Rain since
9am
mm
Dir  Spd
km/h
Gust
km/h
Spd
kts
Gust
kts
04/11:30pm 25.1 28.3 21.6 81 2.3 NE 7 11 4 6 1014.5 1014.4 0.0
04/11:00pm 25.2 28.0 21.5 80 2.5 NNE 9 13 5 7 1014.5 1014.4 0.0
04/10:30pm 25.5 28.3 21.6 79 2.6 NNE 9 13 5 7 1014.5 1014.4 0.0
04/10:00pm 25.6 28.4 21.5 78 2.7 NNE 9 15 5 8 1014.5 1014.4 0.0
04/09:30pm 25.8 28.2 21.5 77 2.9 NNE 11 17 6 9 1014.5 1014.4 0.0
04/09:00pm 26.0 28.2 21.2 75 3.2 NNE 11 17 6 9 1014.3 1014.2 0.0
04/08:30pm 26.1 28.0 21.3 75 3.2 NNE 13 17 7 9 1013.9 1013.8 0.0
04/08:00pm 26.4 27.9 21.2 73 3.4 NNE 15 20 8 11 1013.6 1013.5 0.0
04/07:30pm 26.6 28.0 21.1 72 3.6 NNE 15 19 8 10 1013.5 1013.4 0.0
04/07:00pm 26.7 27.6 20.8 70 3.9 NNE 17 22 9 12 1013.1 1013.0 0.0
04/06:30pm 27.0 27.5 21.1 70 3.9 NNE 20 28 11 15 1012.8 1012.7 0.0
04/06:00pm 27.6 28.0 20.9 67 4.4 NNE 20 26 11 14 1012.6 1012.5 0.0
04/05:30pm 28.4 29.0 21.4 66 4.7 NNE 20 28 11 15 1012.3 1012.2 0.0
04/05:00pm 28.8 29.1 20.8 62 5.3 NE 20 28 11 15 1012.2 1012.1 0.0
04/04:30pm 29.5 29.9 20.9 60 5.7 NE 20 30 11 16 1012.2 1012.1 0.0
04/04:00pm 29.5 29.3 21.2 61 5.5 NE 24 32 13 17 1012.1 1012.0 0.0
04/03:30pm 30.1 30.4 21.5 60 5.8 NE 22 30 12 16 1012.1 1012.0 0.0
04/03:00pm 29.7 29.5 20.5 57 6.1 NE 22 28 12 15 1012.4 1012.3 0.0
04/02:30pm 30.4 30.5 21.2 58 6.2 NNE 22 30 12 16 1012.9 1012.8 0.0
04/02:00pm 30.2 30.3 20.4 55 6.5 NE 20 28 11 15 1013.1 1013.0 0.0
04/01:30pm 30.7 30.9 20.6 54 6.7 NNE 20 28 11 15 1013.3 1013.2 0.0
04/01:00pm 30.9 31.2 20.8 55 6.7 NE 20 28 11 15 1013.6 1013.5 0.0
04/12:30pm 30.6 30.8 20.5 54 6.7 NE 20 28 11 15 1014.1 1014.0 0.0
04/12:00pm 31.2 31.4 20.5 53 7.1 NE 20 30 11 16 1014.6 1014.5 0.0
04/11:30am 31.2 31.5 20.8 54 6.9 NE 20 28 11 15 1015.0 1014.9 0.0
04/11:00am 30.8 31.1 20.7 55 6.7 NE 20 28 11 15 1015.2 1015.1 0.0
04/10:30am 29.7 29.8 20.0 56 6.4 NNE 19 26 10 14 1015.3 1015.2 0.0
04/10:00am 29.8 29.8 19.8 55 6.6 NE 19 30 10 16 1015.7 1015.6 0.0
04/09:30am 29.1 29.6 20.0 58 6.0 NE 17 28 9 15 1015.9 1015.8 0.0
04/09:00am 29.3 29.7 19.9 57 6.2 NE 17 22 9 12 1016.0 1015.9 0.0
04/08:30am 28.7 29.1 19.9 59 5.8 NNE 17 22 9 12 1015.9 1015.8 0.0
04/08:00am 27.6 27.9 20.4 65 4.7 NNE 19 26 10 14 1015.7 1015.6 0.0
04/07:30am 27.9 28.6 21.2 67 4.5 NNE 19 26 10 14 1015.8 1015.7 0.0
04/07:00am 26.5 27.0 20.8 71 3.8 NNE 19 24 10 13 1015.3 1015.2 0.0
04/06:30am 26.4 28.3 21.4 74 3.3 NNE 13 20 7 11 1015.2 1015.1 0.0
04/06:00am 25.9 29.1 21.6 77 2.9 NNE 7 13 4 7 1015.4 1015.3 0.0
04/05:30am 25.4 27.8 21.5 79 2.6 NE 11 15 6 8 1015.2 1015.1 0.0
04/05:00am 25.1 27.8 21.4 80 2.4 ENE 9 15 5 8 1015.3 1015.2 0.0
04/04:30am 25.0 27.9 21.1 79 2.6 E 7 11 4 6 1015.3 1015.2 0.0
04/04:00am 25.3 27.6 21.4 79 2.6 E 11 17 6 9 1015.2 1015.1 0.0
04/03:30am 26.0 27.8 21.2 75 3.2 ENE 13 22 7 12 1015.0 1014.9 0.0
04/03:00am 26.0 27.7 21.0 74 3.3 ENE 13 20 7 11 1015.1 1015.0 0.0
04/02:30am 25.5 27.1 20.7 75 3.1 NNE 13 19 7 10 1013.4 1013.3 0.0
04/02:00am 25.8 26.8 21.0 75 3.2 NNE 17 24 9 13 1013.5 1013.4 0.0
04/01:30am 25.8 27.6 21.2 76 3.0 NNE 13 19 7 10 1013.7 1013.6 0.0
04/01:00am 25.3 28.0 21.4 79 2.6 N 9 13 5 7 1013.6 1013.5 0.0
04/12:30am 25.2 27.5 21.3 79 2.6 N 11 15 6 8 1013.9 1013.8 0.0
04/12:00am 25.3 28.0 21.4 79 2.6 N 9 15 5 8 1014.1 1014.0 0.0
 
Date/Time
EST
Temp
°C
App
Temp
°C
Dew
Point
°C
Rel
Hum
%
Delta-T
°C
Wind Press
QNH
hPa
Press
MSL
hPa
Rain since
9am
mm
Dir  Spd
km/h
Gust
km/h
Spd
kts
Gust
kts
03/11:30pm 25.7 27.5 21.8 79 2.6 NNE 15 20 8 11 1014.2 1014.1 0.0
03/11:00pm 25.8 27.9 21.7 78 2.7 NNE 13 19 7 10 1014.5 1014.4 0.0
03/10:30pm 25.9 27.2 21.6 77 2.9 NNE 17 24 9 13 1014.2 1014.1 0.0

Other Formats:

Comma delimited format used in spreadsheet applications
http://www.bom.gov.au/fwo/IDQ60801/IDQ60801.95369.axf

JavaScript Object Notation format (JSON) in row-major order
http://www.bom.gov.au/fwo/IDQ60801/IDQ60801.95369.json